Flight Track Log - Related Links

Times and Time Zones

All times are in EDT time to prevent confusion due to time zone crossing. See the NASA817 flight status page for this flight to view local times or setup timezone preferences in your user account.

Time Position Orientation Groundspeed Altitude Reporting Facility
EDT Latitude Longitude Course Direction KTS MPH feet Rate Location/Type
Fri 01:43:09 AM 32.4386 -117.6472 12° North 457 526 25,000  Level Los Angeles Center
Fri 01:44:10 AM 32.5675 -117.6158 12° North 463 533 25,000  Level Los Angeles Center
Fri 01:45:11 AM 32.6911 -117.5819 13° North 457 526 25,000  Level Los Angeles Center
Fri 01:46:12 AM 32.8175 -117.6019 352° North 469 540 25,000 -541 Level Los Angeles Center
Fri 01:47:13 AM 32.9642 -117.6708 338° Northwest 472 543 23,900 -1,131 Descending Los Angeles Center
Fri 01:48:14 AM 33.0736 -117.7636 325° Northwest 475 547 22,700 -927 Descending Los Angeles Center
Fri 01:49:16 AM 33.1775 -117.8533 324° Northwest 466 536 22,000 -341 Descending Los Angeles Center
Fri 01:50:17 AM 33.2778 -117.9350 326° Northwest 443 510 22,000  Level Los Angeles Center
Fri 01:51:18 AM 33.3778 -118.0125 327° Northwest 431 496 22,000 -244 Level Los Angeles Center
Fri 01:52:20 AM 33.4853 -118.0536 342° North 420 483 21,500 -885 Descending Los Angeles Center
Fri 01:53:20 AM 33.6033 -118.0492 North 426 490 20,200 -744 Descending Los Angeles Center
Fri 01:54:21 AM 33.7200 -118.0453 North 425 489 20,000 -98 Descending Los Angeles Center
Fri 01:55:22 AM 33.8478 -118.0408 North 389 448 20,000  Level Los Angeles Center
Fri 01:56:35 AM 33.9464 -118.0464 357° North 362 417 20,000 -44 Level Los Angeles Center
Fri 01:57:37 AM 34.0667 -118.0461 360° North 363 418 19,900 -878 Descending Los Angeles Center
Fri 01:58:38 AM 34.1664 -118.0497 358° North 359 413 18,200 -2,016 Descending Los Angeles Center
Fri 01:59:39 AM 34.2656 -118.0497 360° North 358 412 15,800 -1,623 Descending Los Angeles Center
Fri 02:00:40 AM 34.3636 -118.0517 359° North 353 406 14,900 -738 Descending Los Angeles Center
Fri 02:01:41 AM 34.4528 -118.0536 359° North 294 338 14,300 -836 Descending Los Angeles Center
Fri 02:02:42 AM 34.5303 -118.0528 North 278 320 13,200 -1,279 Descending Los Angeles Center
Fri 02:03:43 AM 34.5914 -117.9958 37° Northeast 281 323 11,700 -1,180 Descending Los Angeles Center
Fri 02:04:44 AM 34.6267 -117.9344 55° Northeast 277 319 10,800 -1,073 Descending Los Angeles Center
Fri 02:05:46 AM 34.6736 -117.8569 54° Northeast 233 268 9,500 -1,561 Descending Los Angeles Center
Fri 02:06:47 AM 34.7072 -117.7906 58° Northeast 231 266 7,600 -1,426 Descending Los Angeles Center
Fri 02:07:48 AM 34.6728 -117.7483 135° Southeast 228 262 6,600 -639 Descending Los Angeles Center
Fri 02:08:49 AM 34.6464 -117.8036 240° Southwest 203 234 6,300 -295 Descending Los Angeles Center
Fri 02:09:50 AM 34.6436 -117.8606 267° West 182 209 6,000 -639 Descending Los Angeles Center
Fri 02:10:51 AM 34.6397 -117.9194 265° West 161 185 5,000 -885 Descending Los Angeles Center
Fri 02:11:52 AM 34.6383 -117.9658 268° West 149 171 4,200 -672 Descending Los Angeles Center
Fri 02:13:05 AM 34.6358 -118.0122 266° West 142 163 3,500 -492 Descending Los Angeles Center
Fri 02:15:07 AM 34.6308 -118.1028 266° West 121 139 2,600 -295 Descending Los Angeles Center
Fri 02:16:08 AM 34.6317 -118.1061 287° West 50 58 2,600  Level Los Angeles Center
Fri 02:17:09 AM 34.6333 -118.1078 321° Northwest 35 40 2,600  Level Los Angeles Center

Login

Don't have an account? Register now (free) for customized features, flight alerts, and more!